• Join FlightAware (Why Join?)
  • Login
  • US Flag 
03:40PM EST


 

Airport Tracker/Info


-or-


 

Live Flight TrackerFlight Track Log ✈ PDT4398 ✈ 31-Jul-2013 ✈ KPHL - KSYR

Flight Track Log - Related Links

Times and Time Zones

All times are in EDT time to prevent confusion due to time zone crossing. See the PDT4398 flight status page for this flight to view local times or setup timezone preferences in your user account.

Time Position Orientation Groundspeed Altitude Reporting Facility
EDT Latitude Longitude Course Direction KTS MPH feet Rate Location/Type
03:50PM 39.9000 -75.2333 311° West 125 144 600  Level Philadelphia TRACON
03:52PM 39.9167 -75.3000 288° West 155 178 2,200 1,200 Climbing Philadelphia TRACON
03:53PM 40.0467 -75.3968 323° Northwest  Level FlightAware Approximate
03:53PM 39.9333 -75.3667 288° West 164 189 3,600  Level Philadelphia TRACON
03:54PM 40.1076 -75.4485 303° West  Level FlightAware Approximate
03:54PM 39.9500 -75.4167 294° West 168 193 4,800  Level Philadelphia TRACON
03:55PM 40.1660 -75.5000 North  Level FlightAware Approximate
03:55PM 39.9667 -75.4667 294° West 169 194 6,000  Level Philadelphia TRACON
03:55PM 39.9833 -75.5167 294° West 163 188 7,300 1,380 Climbing Philadelphia TRACON
03:56PM 40.2210 -75.5565 311° West  Level FlightAware Approximate
03:57PM 40.0000 -75.5667 294° West 156 180 8,900  Level Philadelphia TRACON
03:57PM 40.0306 -75.5692 356° North 169 194 9,000 60 Climbing New York Center
03:58PM 40.0808 -75.5619 North 203 234 9,000 360 Level New York Center
03:59PM 40.1497 -75.5611 North 213 245 9,800 840 Climbing New York Center
04:00PM 40.1997 -75.5619 359° North 213 245 10,800 1,080 Climbing New York Center
04:01PM 40.2533 -75.5767 348° North 189 217 12,000 1,020 Climbing New York Center
04:03PM 40.3272 -75.6497 323° Northwest 167 192 13,900 900 Climbing New York Center
04:04PM 40.3617 -75.6794 327° Northwest 167 192 14,700 720 Climbing New York Center
04:05PM 40.3997 -75.7147 325° Northwest 167 192 15,400 540 Climbing New York Center
04:06PM 40.4419 -75.7533 325° Northwest 167 192 15,900 240 Climbing New York Center
04:07PM 40.4925 -75.7897 331° Northwest 186 214 15,900  Level New York Center
04:08PM 40.5425 -75.8344 326° Northwest 207 238 15,900  Level New York Center
04:09PM 40.5931 -75.8708 331° Northwest 221 254 15,900  Level New York Center
04:10PM 40.6497 -75.9133 330° Northwest 226 260 15,900  Level New York Center
04:11PM 40.7097 -75.9700 324° Northwest 232 267 15,900  Level New York Center
04:12PM 40.7681 -76.0156 329° Northwest 238 274 16,000  Climbing New York Center
04:13PM 40.8222 -76.0661 325° Northwest 238 274 16,000  Level New York Center
04:14PM 40.8761 -76.1144 326° Northwest 233 268 16,000  Level New York Center
04:15PM 40.9261 -76.1594 326° Northwest 233 268 16,000  Level New York Center
04:16PM 40.9825 -76.2050 329° Northwest 233 268 16,000  Level New York Center
04:17PM 41.0528 -76.2189 352° North 227 261 16,000  Level New York Center
04:18PM 41.1178 -76.2106 North 237 273 16,000  Level New York Center
04:19PM 41.1867 -76.2078 North 237 273 16,000  Level New York Center
04:20PM 41.2472 -76.2044 North 237 273 16,000  Level New York Center
04:21PM 41.3161 -76.1961 North 237 273 16,000  Level New York Center
04:22PM 41.3892 -76.1964 360° North 237 273 16,000  Level New York Center
04:23PM 41.4561 -76.1908 North 237 273 16,000  Level New York Center
04:24PM 41.5253 -76.1825 North 237 273 16,000  Level New York Center
04:25PM 41.5836 -76.1789 North 237 273 16,000  Level New York Center
04:26PM 41.6522 -76.1844 357° North 237 273 16,000  Level New York Center
04:27PM 41.7256 -76.1736 North 237 273 16,000  Level New York Center
04:28PM 41.7944 -76.1711 North 237 273 16,000  Level New York Center
04:29PM 41.8592 -76.1650 North 242 278 16,000  Level New York Center
04:30PM 41.9194 -76.1644 360° North 236 272 16,000  Level New York Center
04:31PM 41.9928 -76.1536 North 236 272 16,000  Level New York Center
04:32PM 42.0558 -76.1419 North 236 272 16,000  Level New York Center
04:33PM 42.1206 -76.1417 360° North 241 277 16,000 -360 Level New York Center
04:34PM 42.1872 -76.1386 North 234 269 15,300 -900 Descending New York Center
04:35PM 42.2608 -76.1222 North 247 284 14,300 -1,200 Descending New York Center
04:36PM 42.3119 -76.1072 12° North 281 323 13,500 -1,200 Descending Boston Center
04:37PM 42.4247 -76.1053 North 280 322 12,000 -1,020 Descending Boston Center
04:38PM 42.5061 -76.0961 North 278 320 11,000 -480 Descending Boston Center
04:39PM 42.5769 -76.0975 359° North 253 291 11,000 -300 Level Boston Center
04:40PM 42.6442 -76.0872 North 241 277 10,400 -540 Descending Boston Center
04:41PM 42.7233 -76.0864 360° North 255 293 10,000 -360 Descending Boston Center
04:42PM 42.7872 -76.1069 347° North 239 275 9,700 -840 Descending Boston Center
04:43PM 42.8469 -76.1306 344° North 255 293 8,400 -1,620 Descending Boston Center
04:44PM 42.9217 -76.1461 351° North 267 307 6,700 -1,680 Descending Boston Center
04:45PM 42.9756 -76.1553 353° North 234 269 5,200 -1,860 Descending Boston Center
04:46PM 43.0325 -76.1983 331° Northwest 204 235 3,200 -1,500 Descending Boston Center
04:47PM 43.0819 -76.2186 343° North 180 207 2,200 -960 Descending Boston Center
04:48PM 43.1075 -76.1972 31° Northeast 144 166 1,500 -900 Descending Boston Center